Time;durP1;ratioP1;P1;durP2;ratioP2;P2;SDS_P1;SDS_P2;PMS_P1;PMS_P2;Temp;Humidity;BMP_temperature;BMP_pressure;BME280_temperature;BME280_humidity;BME280_pressure;Samples;Min_cycle;Max_cycle;Signal;HPM_P1;HPM_P2
2022/12/19 00:01:35;;;;;;;35.50;15.13;;;;;;;;;;5056570;28;20195;-40
2022/12/19 00:04:09;;;;;;;36.60;15.60;;;;;;;;;;5055513;28;20242;-39
2022/12/19 00:06:37;;;;;;;85.70;47.87;;;;;;;;;;5055977;28;20196;-39
2022/12/19 00:09:11;;;;;;;63.37;25.63;;;;;;;;;;5056535;28;20250;-39
2022/12/19 00:11:38;;;;;;;49.87;18.20;;;;;;;;;;5056052;28;20203;-40
2022/12/19 00:14:05;;;;;;;54.17;22.13;;;;;;;;;;5055881;28;20699;-40
2022/12/19 00:16:32;;;;;;;84.40;30.17;;;;;;;;;;5055928;28;20592;-39
2022/12/19 00:19:00;;;;;;;53.80;20.00;;;;;;;;;;5056098;28;20235;-39
2022/12/19 00:21:29;;;;;;;81.17;28.20;;;;;;;;;;5056134;28;20199;-39
2022/12/19 00:23:57;;;;;;;57.33;20.37;;;;;;;;;;5055803;28;20639;-39
2022/12/19 00:26:29;;;;;;;81.63;26.77;;;;;;;;;;5056002;28;20211;-39
2022/12/19 00:28:58;;;;;;;104.90;57.00;;;;;;;;;;5055176;28;20196;-39
2022/12/19 00:31:28;;;;;;;72.43;28.40;;;;;;;;;;5056339;28;20203;-39
2022/12/19 00:33:56;;;;;;;78.10;24.57;;;;;;;;;;5055576;28;20303;-39
2022/12/19 00:36:28;;;;;;;52.43;16.50;;;;;;;;;;5055756;28;20204;-39
2022/12/19 00:38:57;;;;;;;51.87;18.87;;;;;;;;;;5055879;28;20258;-39
2022/12/19 00:41:27;;;;;;;63.70;21.23;;;;;;;;;;5055612;28;20196;-40
2022/12/19 00:44:05;;;;;;;58.00;20.10;;;;;;;;;;5055362;28;20216;-39
2022/12/19 00:46:34;;;;;;;42.60;14.13;;;;;;;;;;5055872;28;20568;-40
2022/12/19 00:49:01;;;;;;;46.10;15.60;;;;;;;;;;5055564;28;20204;-39
2022/12/19 00:51:32;;;;;;;137.53;49.87;;;;;;;;;;5055575;28;20199;-40
2022/12/19 00:54:00;;;;;;;71.03;44.07;;;;;;;;;;5054648;28;20211;-40
2022/12/19 00:56:31;;;;;;;50.77;21.10;;;;;;;;;;5055649;28;20207;-40
2022/12/19 00:59:05;;;;;;;48.97;15.20;;;;;;;;;;5054901;28;20204;-39
2022/12/19 01:01:35;;;;;;;40.90;15.40;;;;;;;;;;5054512;28;20199;-39
2022/12/19 01:04:06;;;;;;;44.83;15.53;;;;;;;;;;5054096;28;20224;-40
2022/12/19 01:06:53;;;;;;;42.67;15.07;;;;;;;;;;5055429;28;20208;-39
2022/12/19 01:09:24;;;;;;;37.33;15.17;;;;;;;;;;5055002;28;20218;-40
2022/12/19 01:14:37;;;;;;;31.90;15.20;;;;;;;;;;5055151;28;20204;-39
2022/12/19 01:17:06;;;;;;;44.77;24.77;;;;;;;;;;5054202;28;20204;-40
2022/12/19 01:19:33;;;;;;;47.60;18.07;;;;;;;;;;5054013;28;20247;-39
2022/12/19 01:22:08;;;;;;;49.10;15.27;;;;;;;;;;5055003;28;20528;-39
2022/12/19 01:24:35;;;;;;;35.60;12.63;;;;;;;;;;5055213;28;20227;-39
2022/12/19 01:27:02;;;;;;;33.60;12.33;;;;;;;;;;5054917;28;20204;-39
2022/12/19 01:29:31;;;;;;;43.90;15.13;;;;;;;;;;5054018;28;20212;-39
2022/12/19 01:32:00;;;;;;;22.90;9.97;;;;;;;;;;5055082;28;20250;-39
2022/12/19 01:34:30;;;;;;;28.60;11.03;;;;;;;;;;5054837;28;20212;-39
2022/12/19 01:36:57;;;;;;;123.57;42.40;;;;;;;;;;5054159;28;20253;-39
2022/12/19 01:39:24;;;;;;;59.90;37.80;;;;;;;;;;5054537;28;20254;-40
2022/12/19 01:41:57;;;;;;;38.90;25.47;;;;;;;;;;5054864;28;20204;-41
2022/12/19 01:44:24;;;;;;;66.43;23.27;;;;;;;;;;5054650;28;20305;-40
2022/12/19 01:46:58;;;;;;;40.87;11.93;;;;;;;;;;5054971;28;20238;-40
2022/12/19 01:49:34;;;;;;;60.27;18.07;;;;;;;;;;5053708;28;20199;-39
2022/12/19 01:52:04;;;;;;;31.20;11.83;;;;;;;;;;5053635;28;20200;-39
2022/12/19 01:54:34;;;;;;;29.53;9.67;;;;;;;;;;5057980;28;20273;-39
2022/12/19 01:57:03;;;;;;;35.87;12.57;;;;;;;;;;5058101;28;20204;-39
2022/12/19 01:59:33;;;;;;;29.07;10.47;;;;;;;;;;5057940;28;20203;-39
2022/12/19 02:02:07;;;;;;;18.37;8.20;;;;;;;;;;5057757;28;20280;-39
2022/12/19 02:04:35;;;;;;;14.10;7.10;;;;;;;;;;5057704;28;20223;-39
2022/12/19 02:07:03;;;;;;;20.37;9.10;;;;;;;;;;5057757;28;20200;-39
2022/12/19 02:09:47;;;;;;;31.03;10.50;;;;;;;;;;5057879;28;20204;-39
2022/12/19 02:12:24;;;;;;;33.07;12.07;;;;;;;;;;5058925;28;20201;-39
2022/12/19 02:14:53;;;;;;;21.37;9.27;;;;;;;;;;5040988;28;20289;-39
2022/12/19 02:17:41;;;;;;;15.43;6.43;;;;;;;;;;5042456;28;20218;-39
2022/12/19 02:20:19;;;;;;;16.10;6.90;;;;;;;;;;5058453;28;20270;-39
2022/12/19 02:22:53;;;;;;;12.43;5.90;;;;;;;;;;5058208;28;20635;-39
2022/12/19 02:25:23;;;;;;;118.73;58.30;;;;;;;;;;5057570;28;20227;-39
2022/12/19 02:28:24;;;;;;;69.67;32.30;;;;;;;;;;5057225;28;20712;-40
2022/12/19 02:31:05;;;;;;;46.67;22.67;;;;;;;;;;5057471;28;20505;-40
2022/12/19 02:33:55;;;;;;;34.53;11.40;;;;;;;;;;5057192;28;20204;-40
2022/12/19 02:36:36;;;;;;;30.80;9.47;;;;;;;;;;5057643;28;20263;-39
2022/12/19 02:39:07;;;;;;;35.73;12.50;;;;;;;;;;5057267;28;20223;-39
2022/12/19 02:41:44;;;;;;;77.97;25.93;;;;;;;;;;5057415;28;20279;-39
2022/12/19 02:44:26;;;;;;;55.17;21.07;;;;;;;;;;5057321;28;20211;-39
2022/12/19 02:46:54;;;;;;;34.10;11.80;;;;;;;;;;5073410;28;20203;-40
2022/12/19 02:49:24;;;;;;;46.00;17.33;;;;;;;;;;5041256;28;20204;-39
2022/12/19 02:52:07;;;;;;;54.60;23.63;;;;;;;;;;5056976;28;20234;-39
2022/12/19 02:54:34;;;;;;;42.70;19.30;;;;;;;;;;5056872;28;20199;-39
2022/12/19 02:57:26;;;;;;;61.47;22.93;;;;;;;;;;5056588;28;20210;-39
2022/12/19 03:00:13;;;;;;;31.27;11.93;;;;;;;;;;5057860;28;20256;-39
2022/12/19 03:02:58;;;;;;;27.17;10.10;;;;;;;;;;5040571;28;20215;-39
2022/12/19 03:05:30;;;;;;;32.13;14.17;;;;;;;;;;5057853;28;20288;-39
2022/12/19 03:08:06;;;;;;;26.73;9.90;;;;;;;;;;5056556;28;20299;-39
2022/12/19 03:10:34;;;;;;;37.07;13.93;;;;;;;;;;5040259;28;20203;-39
2022/12/19 03:13:09;;;;;;;75.43;37.90;;;;;;;;;;5057223;28;20208;-40
2022/12/19 03:15:38;;;;;;;74.17;38.30;;;;;;;;;;5056859;28;20207;-39
2022/12/19 03:18:06;;;;;;;46.43;20.20;;;;;;;;;;5056396;28;20299;-39
2022/12/19 03:20:51;;;;;;;70.07;25.13;;;;;;;;;;5057686;28;20559;-39
2022/12/19 03:23:18;;;;;;;28.43;11.33;;;;;;;;;;5072677;28;20627;-39
2022/12/19 03:25:48;;;;;;;33.43;12.73;;;;;;;;;;5056205;28;20239;-39
2022/12/19 03:28:21;;;;;;;32.20;11.73;;;;;;;;;;5056673;28;20195;-39
2022/12/19 03:30:48;;;;;;;25.00;9.43;;;;;;;;;;5057536;28;20252;-39
2022/12/19 03:33:17;;;;;;;44.93;16.97;;;;;;;;;;5056914;28;20230;-40
2022/12/19 03:35:45;;;;;;;59.63;19.97;;;;;;;;;;5056320;28;20222;-39
2022/12/19 03:38:13;;;;;;;117.43;62.40;;;;;;;;;;5055882;28;20200;-39
2022/12/19 03:40:43;;;;;;;62.63;23.87;;;;;;;;;;5055818;28;20216;-39
2022/12/19 03:43:11;;;;;;;72.50;23.40;;;;;;;;;;5056047;28;20247;-39
2022/12/19 03:45:39;;;;;;;81.80;24.03;;;;;;;;;;5056040;28;20297;-39
2022/12/19 03:48:37;;;;;;;71.97;23.27;;;;;;;;;;5056483;28;20200;-39
2022/12/19 03:51:17;;;;;;;77.80;24.77;;;;;;;;;;5056630;28;20289;-39
2022/12/19 03:53:59;;;;;;;71.60;23.40;;;;;;;;;;5056799;28;20212;-39
2022/12/19 03:56:31;;;;;;;67.77;21.93;;;;;;;;;;5056997;28;20222;-39
2022/12/19 03:59:06;;;;;;;95.47;34.23;;;;;;;;;;5072313;28;20635;-39
2022/12/19 04:01:34;;;;;;;82.70;37.03;;;;;;;;;;5038690;28;20203;-39
2022/12/19 04:04:02;;;;;;;67.57;25.53;;;;;;;;;;5055399;28;20200;-39
2022/12/19 04:06:31;;;;;;;65.07;22.97;;;;;;;;;;5055536;28;20227;-39
2022/12/19 04:08:59;;;;;;;63.13;21.67;;;;;;;;;;5056195;28;20203;-39
2022/12/19 04:11:30;;;;;;;67.50;24.03;;;;;;;;;;5055455;28;20196;-39
2022/12/19 04:14:00;;;;;;;56.10;19.67;;;;;;;;;;5055467;28;20199;-39
2022/12/19 04:16:37;;;;;;;62.00;20.27;;;;;;;;;;5054926;28;20223;-39
2022/12/19 04:19:11;;;;;;;44.30;15.97;;;;;;;;;;5071428;28;20724;-39
2022/12/19 04:21:44;;;;;;;133.70;39.93;;;;;;;;;;5056102;28;20204;-39
2022/12/19 04:24:15;;;;;;;106.13;43.53;;;;;;;;;;5055166;28;20549;-39
2022/12/19 04:26:45;;;;;;;102.60;62.13;;;;;;;;;;5054903;28;20219;-40
2022/12/19 04:29:13;;;;;;;56.30;22.90;;;;;;;;;;5056351;28;20216;-39
2022/12/19 04:31:41;;;;;;;95.60;27.03;;;;;;;;;;5054976;28;20208;-39
2022/12/19 04:34:08;;;;;;;66.90;20.83;;;;;;;;;;5054637;28;20287;-39
2022/12/19 04:36:35;;;;;;;52.83;20.00;;;;;;;;;;5051656;28;20204;-40
2022/12/19 04:39:02;;;;;;;65.07;24.17;;;;;;;;;;5054957;28;20209;-41
2022/12/19 04:41:30;;;;;;;45.77;17.63;;;;;;;;;;5055782;28;20235;-40
2022/12/19 04:43:57;;;;;;;36.20;13.80;;;;;;;;;;5055399;28;20295;-40
2022/12/19 04:46:24;;;;;;;203.07;70.97;;;;;;;;;;5055807;28;20251;-39
2022/12/19 04:48:51;;;;;;;122.27;59.07;;;;;;;;;;5055769;28;20204;-39
2022/12/19 04:51:18;;;;;;;84.83;36.93;;;;;;;;;;5055313;28;20200;-39
2022/12/19 04:53:45;;;;;;;87.03;28.63;;;;;;;;;;5055263;28;20646;-40
2022/12/19 04:56:12;;;;;;;71.90;23.90;;;;;;;;;;5050146;28;20219;-39
2022/12/19 04:58:39;;;;;;;56.43;21.70;;;;;;;;;;5055398;28;20227;-40
2022/12/19 05:01:08;;;;;;;49.43;18.97;;;;;;;;;;5055012;28;20212;-40
2022/12/19 05:03:35;;;;;;;60.97;21.50;;;;;;;;;;5054985;28;20222;-40
2022/12/19 05:06:04;;;;;;;51.97;18.60;;;;;;;;;;5054984;28;20228;-41
2022/12/19 05:08:31;;;;;;;42.03;16.40;;;;;;;;;;5049723;28;20654;-39
2022/12/19 05:10:59;;;;;;;68.77;31.33;;;;;;;;;;5054210;28;20227;-39
2022/12/19 05:13:27;;;;;;;159.10;83.63;;;;;;;;;;5053889;28;20231;-39
2022/12/19 05:15:59;;;;;;;117.03;60.10;;;;;;;;;;5047901;28;20568;-39
2022/12/19 05:18:27;;;;;;;93.63;33.40;;;;;;;;;;5036343;28;20286;-40
2022/12/19 05:20:55;;;;;;;162.20;40.10;;;;;;;;;;5054323;28;20262;-39
2022/12/19 05:23:22;;;;;;;75.23;21.47;;;;;;;;;;5034802;28;20244;-39
2022/12/19 05:25:50;;;;;;;100.17;27.30;;;;;;;;;;5033251;28;20251;-39
2022/12/19 05:28:18;;;;;;;56.50;18.07;;;;;;;;;;5034070;28;20304;-40
2022/12/19 05:30:45;;;;;;;47.53;16.43;;;;;;;;;;5034169;28;20231;-39
2022/12/19 05:33:18;;;;;;;35.23;13.90;;;;;;;;;;5033764;28;20682;-39
2022/12/19 05:35:46;;;;;;;94.37;41.30;;;;;;;;;;5034336;28;20208;-40
2022/12/19 05:38:13;;;;;;;77.30;44.37;;;;;;;;;;5033063;28;20752;-41
2022/12/19 05:40:41;;;;;;;42.73;22.30;;;;;;;;;;5046786;28;20231;-41
2022/12/19 05:43:07;;;;;;;41.33;18.40;;;;;;;;;;5053180;28;20252;-46
2022/12/19 05:45:38;;;;;;;44.90;16.00;;;;;;;;;;5052085;28;20248;-40
2022/12/19 05:48:05;;;;;;;43.23;16.23;;;;;;;;;;5051640;28;20227;-41
2022/12/19 05:50:35;;;;;;;35.03;13.47;;;;;;;;;;5052007;28;20789;-40
2022/12/19 05:53:08;;;;;;;22.97;8.70;;;;;;;;;;5052809;28;20244;-45
2022/12/19 05:55:35;;;;;;;24.23;10.63;;;;;;;;;;5051780;28;20678;-40
2022/12/19 05:58:02;;;;;;;41.83;14.13;;;;;;;;;;5032562;28;20229;-44
2022/12/19 06:00:29;;;;;;;123.07;74.03;;;;;;;;;;5031984;28;20224;-40
2022/12/19 06:02:56;;;;;;;67.20;40.37;;;;;;;;;;5031605;28;20693;-45
2022/12/19 06:05:23;;;;;;;50.73;23.23;;;;;;;;;;5030406;28;20224;-40
2022/12/19 06:07:50;;;;;;;75.63;22.30;;;;;;;;;;5037408;28;20235;-43
2022/12/19 06:10:18;;;;;;;53.43;17.77;;;;;;;;;;5052224;28;20223;-40
2022/12/19 06:12:45;;;;;;;47.37;16.17;;;;;;;;;;5052753;28;20596;-39
2022/12/19 06:15:12;;;;;;;23.20;9.90;;;;;;;;;;5053578;28;20228;-41
2022/12/19 06:17:39;;;;;;;26.50;9.90;;;;;;;;;;5053967;28;20224;-39
2022/12/19 06:20:06;;;;;;;31.00;11.53;;;;;;;;;;5053858;28;20232;-43
2022/12/19 06:22:34;;;;;;;46.50;16.63;;;;;;;;;;5053441;28;20269;-39
2022/12/19 06:25:01;;;;;;;59.50;26.40;;;;;;;;;;5049814;28;20200;-40
2022/12/19 06:27:28;;;;;;;48.67;25.70;;;;;;;;;;5052784;28;20228;-40
2022/12/19 06:29:55;;;;;;;56.33;23.47;;;;;;;;;;5052925;28;20204;-39
2022/12/19 06:32:23;;;;;;;58.83;19.23;;;;;;;;;;5052695;28;20204;-40
2022/12/19 06:34:50;;;;;;;60.20;17.67;;;;;;;;;;5053541;28;20208;-39
2022/12/19 06:37:32;;;;;;;45.40;17.47;;;;;;;;;;5053065;28;20580;-39
2022/12/19 06:40:03;;;;;;;47.43;17.73;;;;;;;;;;5056869;28;20277;-39
2022/12/19 06:42:30;;;;;;;46.37;15.57;;;;;;;;;;5057335;28;20200;-39
2022/12/19 06:44:57;;;;;;;53.07;19.13;;;;;;;;;;5057126;28;20200;-40
2022/12/19 06:47:24;;;;;;;63.50;23.63;;;;;;;;;;5057140;28;20231;-39
2022/12/19 06:49:52;;;;;;;107.90;58.17;;;;;;;;;;5057858;28;20204;-39
2022/12/19 06:52:19;;;;;;;70.50;32.70;;;;;;;;;;5056914;28;20287;-39
2022/12/19 06:54:46;;;;;;;62.73;21.07;;;;;;;;;;5057218;28;20223;-41
2022/12/19 06:57:13;;;;;;;95.00;25.80;;;;;;;;;;5056789;28;20212;-39
2022/12/19 06:59:40;;;;;;;61.13;18.93;;;;;;;;;;5056994;28;20204;-40
2022/12/19 07:02:19;;;;;;;56.80;19.40;;;;;;;;;;5056857;28;20682;-39
2022/12/19 07:04:49;;;;;;;50.10;17.43;;;;;;;;;;5057419;28;20211;-39
2022/12/19 07:07:16;;;;;;;59.27;18.00;;;;;;;;;;5055484;28;20297;-40
2022/12/19 07:09:43;;;;;;;61.57;19.23;;;;;;;;;;5056002;28;20208;-41
2022/12/19 07:12:10;;;;;;;74.60;29.00;;;;;;;;;;5055301;28;20199;-42
2022/12/19 07:14:37;;;;;;;89.60;45.80;;;;;;;;;;5055283;28;20200;-40
2022/12/19 07:17:05;;;;;;;70.07;26.23;;;;;;;;;;5056230;28;20265;-40
2022/12/19 07:19:32;;;;;;;66.07;22.17;;;;;;;;;;5057312;28;20236;-39
2022/12/19 07:22:00;;;;;;;72.63;24.87;;;;;;;;;;5056822;28;20706;-39
2022/12/19 07:24:28;;;;;;;73.37;25.70;;;;;;;;;;5056937;28;20585;-39
2022/12/19 07:26:55;;;;;;;68.77;25.67;;;;;;;;;;5056781;28;20716;-39
2022/12/19 07:29:22;;;;;;;116.87;56.47;;;;;;;;;;5056006;28;20200;-40
2022/12/19 07:31:49;;;;;;;91.57;52.77;;;;;;;;;;5055247;28;20250;-39
2022/12/19 07:34:17;;;;;;;119.43;67.60;;;;;;;;;;5056192;28;20230;-40
2022/12/19 07:36:43;;;;;;;106.20;48.53;;;;;;;;;;5055739;28;20203;-39
2022/12/19 07:39:11;;;;;;;135.00;65.00;;;;;;;;;;5056618;28;20203;-40
2022/12/19 07:41:38;;;;;;;105.73;51.67;;;;;;;;;;5056667;28;20704;-39
2022/12/19 07:44:06;;;;;;;77.90;34.10;;;;;;;;;;5038489;28;20197;-39
2022/12/19 07:46:33;;;;;;;392.43;183.13;;;;;;;;;;5037059;28;20256;-39
2022/12/19 07:49:00;;;;;;;345.20;157.47;;;;;;;;;;5036415;28;20204;-41
2022/12/19 07:51:27;;;;;;;330.30;146.13;;;;;;;;;;5035523;28;20224;-39
2022/12/19 07:53:54;;;;;;;383.90;163.57;;;;;;;;;;5035587;28;20512;-40
2022/12/19 07:56:21;;;;;;;313.20;128.53;;;;;;;;;;5035311;28;20200;-39
2022/12/19 07:58:49;;;;;;;179.30;71.57;;;;;;;;;;5036216;28;20205;-40
2022/12/19 08:01:16;;;;;;;224.20;94.60;;;;;;;;;;5036138;28;20266;-40
2022/12/19 08:03:43;;;;;;;297.30;134.17;;;;;;;;;;5035500;28;20262;-40
2022/12/19 08:06:10;;;;;;;264.50;125.33;;;;;;;;;;5035944;28;20228;-39
2022/12/19 08:08:37;;;;;;;211.03;99.77;;;;;;;;;;5035292;28;20208;-43
2022/12/19 08:11:07;;;;;;;121.40;54.90;;;;;;;;;;5035525;28;20208;-40
2022/12/19 08:13:35;;;;;;;122.00;55.97;;;;;;;;;;5036141;28;20627;-39
2022/12/19 08:16:10;;;;;;;79.70;32.53;;;;;;;;;;5036658;28;20208;-38
2022/12/19 08:18:37;;;;;;;79.40;31.80;;;;;;;;;;5035335;28;20209;-39
2022/12/19 08:21:06;;;;;;;66.60;24.93;;;;;;;;;;5035722;28;20185;-39
2022/12/19 08:23:34;;;;;;;70.03;28.83;;;;;;;;;;5035429;28;20251;-39
2022/12/19 08:26:03;;;;;;;66.90;29.70;;;;;;;;;;5036062;28;20201;-39
2022/12/19 08:28:32;;;;;;;74.40;34.60;;;;;;;;;;5035563;28;20197;-39
2022/12/19 08:31:08;;;;;;;93.33;36.27;;;;;;;;;;5036190;28;20204;-39
2022/12/19 08:33:35;;;;;;;87.10;28.27;;;;;;;;;;5035760;28;20188;-39
2022/12/19 08:36:07;;;;;;;77.87;24.97;;;;;;;;;;5034683;28;20683;-41
2022/12/19 08:38:35;;;;;;;71.20;24.10;;;;;;;;;;5035534;28;20524;-39
2022/12/19 08:41:02;;;;;;;51.13;18.83;;;;;;;;;;5036075;28;20339;-39
2022/12/19 08:43:29;;;;;;;55.80;23.47;;;;;;;;;;5035615;28;20552;-39
2022/12/19 08:45:57;;;;;;;59.73;23.20;;;;;;;;;;5034677;28;20208;-39
2022/12/19 08:48:25;;;;;;;62.33;24.03;;;;;;;;;;5035710;28;20204;-39
2022/12/19 08:51:12;;;;;;;78.17;29.20;;;;;;;;;;5035643;28;20288;-39
2022/12/19 08:53:40;;;;;;;83.20;38.57;;;;;;;;;;5036041;28;20189;-39
2022/12/19 08:56:20;;;;;;;58.77;25.70;;;;;;;;;;5035973;28;20200;-39
2022/12/19 08:58:50;;;;;;;49.17;19.50;;;;;;;;;;5035431;28;20209;-39
2022/12/19 09:01:19;;;;;;;67.30;22.10;;;;;;;;;;5035358;28;20204;-39
2022/12/19 09:03:46;;;;;;;47.70;19.47;;;;;;;;;;5035644;28;20211;-38
2022/12/19 09:06:33;;;;;;;62.30;23.20;;;;;;;;;;5034938;28;20242;-39
2022/12/19 09:09:03;;;;;;;41.00;15.47;;;;;;;;;;5034998;28;20243;-39
2022/12/19 09:11:30;;;;;;;52.00;21.20;;;;;;;;;;5034954;28;20283;-39
2022/12/19 09:13:57;;;;;;;47.97;17.03;;;;;;;;;;5034730;28;20270;-43
2022/12/19 09:16:26;;;;;;;78.30;30.07;;;;;;;;;;5034311;28;20286;-39
2022/12/19 09:18:55;;;;;;;136.43;74.90;;;;;;;;;;5034732;28;20349;-39
2022/12/19 09:21:24;;;;;;;79.03;35.37;;;;;;;;;;5033786;28;20500;-40
2022/12/19 09:23:53;;;;;;;78.47;28.60;;;;;;;;;;5034183;28;20208;-40
2022/12/19 09:26:22;;;;;;;85.47;25.37;;;;;;;;;;5033397;28;20223;-39
2022/12/19 09:28:50;;;;;;;83.17;25.90;;;;;;;;;;5034896;28;20205;-39
2022/12/19 09:31:23;;;;;;;63.47;22.93;;;;;;;;;;5034504;28;20650;-39
2022/12/19 09:33:51;;;;;;;62.10;22.43;;;;;;;;;;5034742;28;20627;-39
2022/12/19 09:36:19;;;;;;;29.30;11.00;;;;;;;;;;5035095;28;20231;-39
2022/12/19 09:38:47;;;;;;;57.57;20.33;;;;;;;;;;5034359;28;20604;-39
2022/12/19 09:41:29;;;;;;;88.23;30.87;;;;;;;;;;5033726;28;20204;-41
2022/12/19 09:44:19;;;;;;;99.40;55.90;;;;;;;;;;5033336;28;20193;-41
2022/12/19 09:46:49;;;;;;;82.37;31.87;;;;;;;;;;5031869;28;20678;-39
2022/12/19 09:49:20;;;;;;;73.23;22.60;;;;;;;;;;5031839;28;20213;-39
2022/12/19 09:51:56;;;;;;;46.63;15.37;;;;;;;;;;5033403;28;20205;-39
2022/12/19 09:54:41;;;;;;;69.73;24.87;;;;;;;;;;5034618;28;20200;-38
2022/12/19 09:57:18;;;;;;;39.80;15.97;;;;;;;;;;5033011;28;20205;-39
2022/12/19 10:00:11;;;;;;;76.30;26.40;;;;;;;;;;5032723;28;20211;-39
2022/12/19 10:03:14;;;;;;;44.73;18.40;;;;;;;;;;5033114;28;20631;-39
2022/12/19 10:05:43;;;;;;;67.23;27.57;;;;;;;;;;4954601;29;20210;-40
2022/12/19 10:08:34;;;;;;;132.37;72.50;;;;;;;;;;4952416;29;20297;-42
2022/12/19 10:11:46;;;;;;;91.20;28.77;;;;;;;;;;4952777;29;20211;-39
2022/12/19 10:15:07;;;;;;;90.03;29.37;;;;;;;;;;4956657;28;20218;-38
2022/12/19 10:17:56;;;;;;;80.17;29.30;;;;;;;;;;4957888;29;20244;-39
2022/12/19 10:20:28;;;;;;;39.03;16.93;;;;;;;;;;4957540;29;20226;-39
2022/12/19 10:23:14;;;;;;;87.47;31.10;;;;;;;;;;4957665;29;20227;-39
2022/12/19 10:25:51;;;;;;;59.60;23.33;;;;;;;;;;4958158;29;20306;-39
2022/12/19 10:28:43;;;;;;;76.53;30.47;;;;;;;;;;4942034;29;20227;-43
2022/12/19 10:31:34;;;;;;;90.60;31.70;;;;;;;;;;4958335;29;20290;-40
2022/12/19 10:34:07;;;;;;;105.50;52.57;;;;;;;;;;4958196;29;20219;-43
2022/12/19 10:36:42;;;;;;;89.33;37.07;;;;;;;;;;4955987;29;20199;-39
2022/12/19 10:39:33;;;;;;;67.30;23.57;;;;;;;;;;4988310;28;20243;-42
2022/12/19 10:42:31;;;;;;;80.20;26.70;;;;;;;;;;5035989;28;20215;-39
2022/12/19 10:45:04;;;;;;;70.23;25.97;;;;;;;;;;5003931;28;20209;-39
2022/12/19 10:47:31;;;;;;;61.07;23.80;;;;;;;;;;5036768;28;20302;-39
2022/12/19 10:49:58;;;;;;;54.60;20.27;;;;;;;;;;5037087;28;20519;-39
2022/12/19 10:52:56;;;;;;;62.83;22.97;;;;;;;;;;5037836;28;20239;-39
2022/12/19 10:55:37;;;;;;;91.73;33.87;;;;;;;;;;5037276;28;20558;-39
2022/12/19 10:58:12;;;;;;;106.57;44.13;;;;;;;;;;5052294;28;20220;-39
2022/12/19 11:00:58;;;;;;;95.43;44.80;;;;;;;;;;5036827;28;20204;-39
2022/12/19 11:03:25;;;;;;;95.00;32.80;;;;;;;;;;5037557;28;20197;-39
2022/12/19 11:05:55;;;;;;;85.50;28.17;;;;;;;;;;5037191;28;20204;-39
2022/12/19 11:08:26;;;;;;;94.10;29.63;;;;;;;;;;5036991;28;20212;-39
2022/12/19 11:11:04;;;;;;;78.63;26.13;;;;;;;;;;5018060;28;20212;-39
2022/12/19 11:13:51;;;;;;;65.20;22.87;;;;;;;;;;5037405;28;20205;-39
2022/12/19 11:16:38;;;;;;;60.00;21.47;;;;;;;;;;5037032;28;20224;-39
2022/12/19 11:19:28;;;;;;;85.97;28.47;;;;;;;;;;5036965;28;20232;-39
2022/12/19 11:22:20;;;;;;;124.97;43.63;;;;;;;;;;5037196;28;20193;-39
2022/12/19 11:25:14;;;;;;;131.67;76.13;;;;;;;;;;5036553;28;20207;-40
2022/12/19 11:28:10;;;;;;;52.67;21.57;;;;;;;;;;5036908;28;20568;-40
2022/12/19 11:31:00;;;;;;;67.17;24.67;;;;;;;;;;5035229;28;20262;-40
2022/12/19 11:33:53;;;;;;;80.50;25.23;;;;;;;;;;5035043;28;20291;-41
2022/12/19 11:36:35;;;;;;;84.60;28.47;;;;;;;;;;5036053;28;20192;-39
2022/12/19 11:39:03;;;;;;;63.33;21.23;;;;;;;;;;5036078;28;20284;-39
2022/12/19 11:41:41;;;;;;;73.93;23.53;;;;;;;;;;5035967;28;20300;-39
2022/12/19 11:44:20;;;;;;;55.63;21.97;;;;;;;;;;5036250;28;20193;-39
2022/12/19 11:46:55;;;;;;;105.60;39.07;;;;;;;;;;5036881;28;20258;-39
2022/12/19 11:49:40;;;;;;;194.43;53.80;;;;;;;;;;5034542;28;20254;-40
2022/12/19 11:52:14;;;;;;;87.03;39.40;;;;;;;;;;5034260;28;20601;-39
2022/12/19 11:55:18;;;;;;;59.03;24.87;;;;;;;;;;5036354;28;20216;-39
2022/12/19 11:57:45;;;;;;;95.13;32.20;;;;;;;;;;5035281;28;20227;-40
2022/12/19 12:00:17;;;;;;;77.30;28.73;;;;;;;;;;5035851;28;20216;-39
2022/12/19 12:02:54;;;;;;;67.70;26.30;;;;;;;;;;5035547;28;20623;-39
2022/12/19 12:05:43;;;;;;;74.67;26.73;;;;;;;;;;5036727;28;20201;-40
2022/12/19 12:08:45;;;;;;;75.43;25.67;;;;;;;;;;5036598;28;20220;-39
2022/12/19 12:11:51;;;;;;;172.53;60.67;;;;;;;;;;4956634;29;20211;-39
2022/12/19 12:15:08;;;;;;;94.07;31.80;;;;;;;;;;4956433;29;20298;-39
2022/12/19 12:18:04;;;;;;;70.33;32.47;;;;;;;;;;4964916;28;20202;-41
2022/12/19 12:20:54;;;;;;;56.93;23.23;;;;;;;;;;4974933;28;20227;-40
2022/12/19 12:24:07;;;;;;;78.97;29.20;;;;;;;;;;4962015;28;20194;-40
2022/12/19 12:27:24;;;;;;;73.13;26.43;;;;;;;;;;4975280;28;20217;-40
2022/12/19 12:30:17;;;;;;;66.83;23.50;;;;;;;;;;4975156;28;20234;-39
2022/12/19 12:33:12;;;;;;;66.03;24.70;;;;;;;;;;4988121;28;20226;-42
2022/12/19 12:36:10;;;;;;;63.87;24.53;;;;;;;;;;4989143;28;20202;-41
2022/12/19 12:39:00;;;;;;;98.17;38.27;;;;;;;;;;4990826;28;20592;-42
2022/12/19 12:44:22;;;;;;;91.67;35.17;;;;;;;;;;4956210;28;20250;-42
2022/12/19 12:47:23;;;;;;;64.97;31.93;;;;;;;;;;4990863;28;20697;-40
2022/12/19 12:50:02;;;;;;;73.80;28.57;;;;;;;;;;5040639;28;20611;-39
2022/12/19 12:52:41;;;;;;;79.47;26.40;;;;;;;;;;5054727;28;20188;-39
2022/12/19 12:55:26;;;;;;;80.47;28.67;;;;;;;;;;5054119;28;20199;-41
2022/12/19 12:57:53;;;;;;;66.30;25.47;;;;;;;;;;5048346;28;20228;-39
2022/12/19 13:00:27;;;;;;;62.03;26.27;;;;;;;;;;5054496;28;20285;-39
2022/12/19 13:03:16;;;;;;;62.93;23.23;;;;;;;;;;5041018;28;20252;-39
2022/12/19 13:06:06;;;;;;;86.03;29.43;;;;;;;;;;5034083;28;20585;-42
2022/12/19 13:08:46;;;;;;;88.63;33.67;;;;;;;;;;5043749;28;20239;-41
2022/12/19 13:14:40;;;;;;;69.63;32.47;;;;;;;;;;5034645;28;20236;-41
2022/12/19 13:17:16;;;;;;;68.73;24.87;;;;;;;;;;5033585;28;20235;-40
2022/12/19 13:20:16;;;;;;;73.37;26.40;;;;;;;;;;5032794;28;20323;-41
2022/12/19 13:22:45;;;;;;;60.40;22.03;;;;;;;;;;5046699;28;20610;-40
2022/12/19 13:25:33;;;;;;;54.00;21.80;;;;;;;;;;5043652;28;20587;-41
2022/12/19 13:28:00;;;;;;;58.87;23.27;;;;;;;;;;5034433;28;20232;-40
2022/12/19 13:30:29;;;;;;;55.43;22.33;;;;;;;;;;5054010;28;20231;-44
2022/12/19 13:33:04;;;;;;;77.37;32.33;;;;;;;;;;5053913;28;20224;-39
2022/12/19 13:35:33;;;;;;;78.13;28.47;;;;;;;;;;5054184;28;20231;-41
2022/12/19 13:38:25;;;;;;;131.47;72.97;;;;;;;;;;5052965;28;20219;-40
2022/12/19 13:44:20;;;;;;;51.10;21.60;;;;;;;;;;5077781;28;20219;-39
2022/12/19 13:46:48;;;;;;;65.03;24.83;;;;;;;;;;5053308;28;20223;-39
2022/12/19 13:49:24;;;;;;;79.53;33.23;;;;;;;;;;5047882;28;20240;-40
2022/12/19 13:51:57;;;;;;;64.40;26.07;;;;;;;;;;5035881;28;20223;-40
2022/12/19 13:54:35;;;;;;;59.90;23.93;;;;;;;;;;5052349;28;20748;-43
2022/12/19 13:57:20;;;;;;;53.97;21.07;;;;;;;;;;5053401;28;20580;-40
2022/12/19 13:59:48;;;;;;;62.30;27.23;;;;;;;;;;5052094;28;20324;-40
2022/12/19 14:02:38;;;;;;;96.83;46.37;;;;;;;;;;5053729;28;20294;-39
2022/12/19 14:05:31;;;;;;;82.53;43.07;;;;;;;;;;5054050;28;20297;-40
2022/12/19 14:08:21;;;;;;;65.23;27.23;;;;;;;;;;5053576;28;20595;-40
2022/12/19 14:10:50;;;;;;;76.50;26.23;;;;;;;;;;5031171;28;20274;-46
2022/12/19 14:16:40;;;;;;;62.87;23.83;;;;;;;;;;5051509;28;20234;-42
2022/12/19 14:19:21;;;;;;;53.23;19.33;;;;;;;;;;5032377;28;20316;-45
2022/12/19 14:21:49;;;;;;;58.80;23.13;;;;;;;;;;5032747;28;20220;-43
2022/12/19 14:24:36;;;;;;;105.00;37.27;;;;;;;;;;5050959;28;20278;-44
2022/12/19 14:27:06;;;;;;;68.90;26.80;;;;;;;;;;5052760;28;20212;-44
2022/12/19 14:29:53;;;;;;;56.67;30.83;;;;;;;;;;5050449;28;20674;-45
2022/12/19 14:32:41;;;;;;;92.70;46.00;;;;;;;;;;5041720;28;20286;-44
2022/12/19 14:35:44;;;;;;;101.43;45.00;;;;;;;;;;5032865;28;20244;-43
2022/12/19 14:38:32;;;;;;;73.80;33.23;;;;;;;;;;5031434;28;20274;-46
2022/12/19 14:44:47;;;;;;;89.23;43.80;;;;;;;;;;5031510;28;20290;-50
2022/12/19 14:47:37;;;;;;;79.67;41.03;;;;;;;;;;5039946;28;20662;-44
2022/12/19 14:50:25;;;;;;;107.07;36.00;;;;;;;;;;5055508;28;20610;-46
2022/12/19 14:53:21;;;;;;;73.00;30.17;;;;;;;;;;5052888;28;20227;-40
2022/12/19 14:56:16;;;;;;;116.93;69.13;;;;;;;;;;5052840;28;20228;-43
2022/12/19 14:59:04;;;;;;;284.00;73.87;;;;;;;;;;5051220;28;20235;-46
2022/12/19 15:01:32;;;;;;;170.70;52.93;;;;;;;;;;5045388;28;20227;-44
2022/12/19 15:04:06;;;;;;;210.40;66.30;;;;;;;;;;5046648;28;20231;-41
2022/12/19 15:06:57;;;;;;;79.17;31.80;;;;;;;;;;5048795;28;20675;-54
2022/12/19 15:09:52;;;;;;;119.63;42.30;;;;;;;;;;5015611;28;20310;-41
2022/12/19 15:16:02;;;;;;;80.40;29.53;;;;;;;;;;5020099;28;20228;-42
2022/12/19 15:18:32;;;;;;;114.80;41.53;;;;;;;;;;5052423;28;20223;-41
2022/12/19 15:21:06;;;;;;;122.77;71.43;;;;;;;;;;5047452;28;20660;-40
2022/12/19 15:23:33;;;;;;;78.33;35.07;;;;;;;;;;5034546;28;20226;-43